Terminal Aerodrome Forecast
Issued by NWS

Home | Current Version | Previous Version | Text Only | Print | Product List | Glossary On
Versions: 1 2 3 4 5 6 7 8 9 10 11 12 13 14 15 16 17 18 19 20 21 22 23 24 25 26 27 28 29 30
000
FTUS44 KFWD 282332
TAFDAL
TAF
KDAL 282332Z 2900/2924 14014KT P6SM SCT040 BKN060
     FM290600 16013KT 5SM BR VCSH OVC015
     FM290800 15011KT 4SM -TSRA BKN020 OVC045CB
     FM291100 16013KT 6SM BR VCSH BKN050
     FM291600 19013KT P6SM SCT080 BKN300=

USA.gov is the U.S. government's official web portal to all federal, state and local government web resources and services.